createdAt,value
2018-11-03T00:01:34.206Z,76.10
2018-11-03T00:04:37.126Z,76.70
2018-11-03T00:07:40.037Z,77.90
2018-11-03T00:10:43.013Z,77.60
2018-11-03T00:13:46.828Z,77.70
2018-11-03T00:16:51.285Z,77.10
2018-11-03T00:19:55.034Z,76.80
2018-11-03T00:22:58.021Z,76.20
2018-11-03T00:26:01.016Z,75.80
2018-11-03T00:29:04.004Z,76.10
2018-11-03T00:32:06.948Z,76.10
2018-11-03T00:35:10.116Z,75.90
2018-11-03T00:38:13.014Z,76.20
2018-11-03T00:41:16.304Z,76.20
2018-11-03T00:44:19.248Z,76.20
2018-11-03T00:47:24.423Z,76.50
2018-11-03T00:50:27.382Z,76.20
2018-11-03T00:53:30.365Z,76.20
2018-11-03T00:56:33.277Z,76.10
2018-11-03T00:59:36.193Z,76.50
2018-11-03T01:02:40.374Z,76.80
2018-11-03T01:05:43.340Z,76.80
2018-11-03T01:08:46.236Z,77.00
2018-11-03T01:11:49.284Z,76.80
2018-11-03T01:14:52.232Z,77.40
2018-11-03T01:17:55.114Z,77.00
2018-11-03T01:20:58.073Z,77.10
2018-11-03T01:24:02.064Z,76.80
2018-11-03T01:27:05.510Z,76.60
2018-11-03T01:30:12.675Z,76.80
2018-11-03T01:33:15.603Z,77.40
2018-11-03T01:36:19.515Z,77.20
2018-11-03T01:39:22.474Z,77.10
2018-11-03T01:42:25.370Z,77.50
2018-11-03T01:45:28.305Z,77.20
2018-11-03T01:48:31.757Z,77.30
2018-11-03T01:51:34.795Z,77.30
2018-11-03T01:54:37.745Z,77.40
2018-11-03T01:57:40.687Z,77.50
2018-11-03T02:00:43.595Z,77.40
2018-11-03T02:03:46.497Z,76.80
2018-11-03T02:06:49.445Z,77.80
2018-11-03T02:09:52.370Z,77.90
2018-11-03T02:12:55.320Z,78.00
2018-11-03T02:15:58.807Z,77.80
2018-11-03T02:19:01.746Z,77.70
2018-11-03T02:22:04.801Z,77.40
2018-11-03T02:25:08.253Z,77.40
2018-11-03T02:28:11.209Z,77.30
2018-11-03T02:31:14.149Z,77.20
2018-11-03T02:34:17.117Z,77.30
2018-11-03T02:37:22.240Z,77.30
2018-11-03T02:40:26.702Z,77.70
2018-11-03T02:43:30.158Z,77.60
2018-11-03T02:46:33.238Z,77.20
2018-11-03T02:49:36.212Z,77.50
2018-11-03T02:52:39.290Z,77.30
2018-11-03T02:55:42.254Z,77.60
2018-11-03T02:58:45.224Z,77.30
2018-11-03T03:01:48.223Z,77.70
2018-11-03T03:04:51.152Z,78.10
2018-11-03T03:07:54.157Z,77.70
2018-11-03T03:10:57.094Z,77.50
2018-11-03T03:14:00.011Z,77.10
2018-11-03T03:17:03.033Z,77.20
2018-11-03T03:20:08.541Z,77.00
2018-11-03T03:23:11.438Z,76.80
2018-11-03T03:26:14.326Z,76.70
2018-11-03T03:29:17.257Z,76.70
2018-11-03T03:32:20.871Z,76.80
2018-11-03T03:35:23.858Z,76.80
2018-11-03T03:38:26.801Z,76.70
2018-11-03T03:41:30.408Z,76.70
2018-11-03T03:44:33.378Z,76.80
2018-11-03T03:47:36.289Z,76.90
2018-11-03T03:50:39.251Z,76.40
2018-11-03T03:53:42.211Z,76.70
2018-11-03T03:56:45.125Z,76.60
2018-11-03T03:59:48.124Z,76.50
2018-11-03T04:02:51.098Z,76.80
2018-11-03T04:05:54.045Z,76.70
2018-11-03T04:08:57.018Z,76.80
2018-11-03T04:11:59.970Z,76.80
2018-11-03T04:15:03.009Z,76.90
2018-11-03T04:18:06.009Z,76.60
2018-11-03T04:21:09.049Z,76.20
2018-11-03T04:24:12.142Z,76.40
2018-11-03T04:27:15.117Z,76.80
2018-11-03T04:30:18.049Z,76.70
2018-11-03T04:33:21.609Z,76.50
2018-11-03T04:36:24.577Z,76.60
2018-11-03T04:39:27.493Z,76.60
2018-11-03T04:42:30.426Z,76.70
2018-11-03T04:45:33.850Z,76.50
2018-11-03T04:48:36.933Z,77.00
2018-11-03T04:51:39.833Z,76.90
2018-11-03T04:54:42.796Z,76.60
2018-11-03T04:57:45.761Z,77.20
2018-11-03T05:00:48.720Z,77.10
2018-11-03T05:03:51.673Z,77.50
2018-11-03T05:06:54.680Z,77.50
2018-11-03T05:09:57.992Z,78.00
2018-11-03T05:13:01.152Z,77.60
2018-11-03T05:16:04.259Z,77.60
2018-11-03T05:19:07.595Z,77.70
2018-11-03T05:22:10.513Z,78.00
2018-11-03T05:25:13.997Z,77.50
2018-11-03T05:28:16.981Z,77.10
2018-11-03T05:31:20.090Z,77.20
2018-11-03T05:34:22.942Z,77.00
2018-11-03T05:37:25.893Z,76.70
2018-11-03T05:40:29.496Z,77.20
2018-11-03T05:43:32.992Z,77.50
2018-11-03T05:46:36.027Z,76.80
2018-11-03T05:49:38.901Z,77.40
2018-11-03T05:52:41.883Z,76.30
2018-11-03T05:55:44.858Z,76.30
2018-11-03T05:58:47.896Z,76.50
2018-11-03T06:01:50.784Z,76.00
2018-11-03T06:04:53.719Z,76.10
2018-11-03T06:07:56.777Z,76.00
2018-11-03T06:10:59.709Z,76.00
2018-11-03T06:14:02.687Z,76.00
2018-11-03T06:17:05.733Z,75.90
2018-11-03T06:20:08.705Z,76.20
2018-11-03T06:23:11.752Z,76.00
2018-11-03T06:26:15.434Z,76.10
2018-11-03T06:29:18.396Z,76.00
2018-11-03T06:32:21.325Z,76.70
2018-11-03T06:35:24.382Z,75.60
2018-11-03T06:38:27.279Z,75.60
2018-11-03T06:41:30.311Z,75.80
2018-11-03T06:44:33.265Z,75.60
2018-11-03T06:47:36.342Z,76.30
2018-11-03T06:50:39.125Z,76.40
2018-11-03T06:53:42.164Z,76.30
2018-11-03T06:56:45.124Z,76.50
2018-11-03T06:59:48.114Z,76.30
2018-11-03T07:02:51.064Z,77.10
2018-11-03T07:05:54.015Z,77.50
2018-11-03T07:08:57.000Z,77.50
2018-11-03T07:11:59.970Z,77.40
2018-11-03T07:15:02.925Z,77.60
2018-11-03T07:18:06.024Z,77.50
2018-11-03T07:21:08.972Z,77.50
2018-11-03T07:24:11.910Z,77.80
2018-11-03T07:27:14.830Z,77.80
2018-11-03T07:30:17.753Z,78.90
2018-11-03T07:33:20.699Z,77.90
2018-11-03T07:36:23.597Z,78.00
2018-11-03T07:39:26.466Z,78.10
2018-11-03T07:42:29.420Z,78.80
2018-11-03T07:45:32.335Z,78.90
2018-11-03T07:48:35.343Z,78.70
2018-11-03T07:51:38.367Z,80.40
2018-11-03T07:54:41.326Z,78.50
2018-11-03T07:57:44.272Z,79.10
2018-11-03T08:00:54.047Z,79.70
2018-11-03T08:03:56.929Z,80.20
2018-11-03T08:06:59.871Z,80.30
2018-11-03T08:10:03.189Z,80.50
2018-11-03T08:13:06.603Z,80.60
2018-11-03T08:16:09.517Z,80.90
2018-11-03T08:19:12.405Z,81.00
2018-11-03T08:22:15.372Z,81.10
2018-11-03T08:25:18.285Z,81.20
2018-11-03T08:28:21.241Z,81.20
2018-11-03T08:31:24.189Z,81.10
2018-11-03T08:34:27.110Z,81.50
2018-11-03T08:37:30.051Z,81.50
2018-11-03T08:40:32.989Z,81.80
2018-11-03T08:43:35.889Z,81.90
2018-11-03T08:46:38.857Z,81.90
2018-11-03T08:49:41.746Z,82.20
2018-11-03T08:52:44.705Z,82.80
2018-11-03T08:55:47.620Z,83.10
2018-11-03T08:58:50.559Z,83.10
2018-11-03T09:01:53.783Z,83.30
2018-11-03T09:04:56.684Z,83.10
2018-11-03T09:07:59.585Z,79.60
2018-11-03T09:11:02.541Z,80.30
2018-11-03T09:14:05.465Z,81.50
2018-11-03T09:17:08.456Z,82.50
2018-11-03T09:20:12.217Z,82.90
2018-11-03T09:23:15.156Z,83.70
2018-11-03T09:26:18.107Z,83.70
2018-11-03T09:29:21.100Z,83.90
2018-11-03T09:32:24.020Z,84.50
2018-11-03T09:35:26.960Z,84.20
2018-11-03T09:38:29.967Z,84.50
2018-11-03T09:41:32.886Z,84.30
2018-11-03T09:44:35.807Z,84.90
2018-11-03T09:47:39.104Z,85.20
2018-11-03T09:50:42.173Z,85.40
2018-11-03T09:53:44.998Z,85.90
2018-11-03T09:56:47.996Z,86.40
2018-11-03T09:59:50.890Z,86.40
2018-11-03T10:02:53.837Z,86.70
2018-11-03T10:05:56.809Z,86.90
2018-11-03T10:08:59.744Z,86.50
2018-11-03T10:12:02.653Z,86.70
2018-11-03T10:15:05.909Z,86.30
2018-11-03T10:18:08.848Z,86.40
2018-11-03T10:21:11.753Z,86.70
2018-11-03T10:24:14.762Z,86.70
2018-11-03T10:27:17.685Z,85.70
2018-11-03T10:30:20.602Z,87.10
2018-11-03T10:33:23.531Z,85.30
2018-11-03T10:36:26.471Z,82.60
2018-11-03T10:39:29.405Z,84.90
2018-11-03T10:42:32.422Z,82.10
2018-11-03T10:45:35.430Z,83.10
2018-11-03T10:48:44.977Z,84.10
2018-11-03T10:51:47.850Z,81.60
2018-11-03T10:54:50.757Z,80.50
2018-11-03T10:57:53.666Z,82.80
2018-11-03T11:01:02.266Z,80.40
2018-11-03T11:04:11.070Z,78.50
2018-11-03T11:07:18.579Z,79.60
2018-11-03T11:10:27.392Z,79.00
2018-11-03T11:13:31.989Z,79.00
2018-11-03T11:16:34.882Z,80.30
2018-11-03T11:19:37.793Z,79.00
2018-11-03T11:22:40.706Z,78.80
2018-11-03T11:25:43.669Z,77.10
2018-11-03T11:28:46.721Z,77.70
2018-11-03T11:31:50.066Z,77.40
2018-11-03T11:34:53.232Z,78.20
2018-11-03T11:37:56.749Z,76.80
2018-11-03T11:40:59.766Z,77.60
2018-11-03T11:44:02.926Z,79.80
2018-11-03T11:47:06.393Z,75.20
2018-11-03T11:50:09.829Z,78.50
2018-11-03T11:53:12.890Z,76.60
2018-11-03T11:56:15.796Z,77.00
2018-11-03T11:59:18.756Z,77.10
2018-11-03T12:02:21.710Z,74.20
2018-11-03T12:05:24.592Z,74.60
2018-11-03T12:08:27.536Z,76.20
2018-11-03T12:11:30.505Z,76.10
2018-11-03T12:14:33.406Z,75.00
2018-11-03T12:17:36.410Z,74.50
2018-11-03T12:20:39.266Z,74.80
2018-11-03T12:23:42.197Z,73.90
2018-11-03T12:26:45.082Z,74.00
2018-11-03T12:29:47.993Z,74.10
2018-11-03T12:32:50.893Z,76.30
2018-11-03T12:35:53.852Z,74.20
2018-11-03T12:38:56.844Z,76.30
2018-11-03T12:41:59.759Z,75.20
2018-11-03T12:45:02.782Z,74.60
2018-11-03T12:48:05.898Z,72.90
2018-11-03T12:51:08.750Z,70.70
2018-11-03T12:54:11.641Z,73.30
2018-11-03T12:57:14.551Z,73.40
2018-11-03T13:00:17.528Z,73.70
2018-11-03T13:03:20.511Z,74.30
2018-11-03T13:06:23.372Z,74.50
2018-11-03T13:09:26.290Z,74.50
2018-11-03T13:12:29.201Z,75.50
2018-11-03T13:15:32.094Z,74.20
2018-11-03T13:18:35.023Z,77.70
2018-11-03T13:21:37.981Z,75.00
2018-11-03T13:24:40.912Z,77.60
2018-11-03T13:27:43.861Z,76.70
2018-11-03T13:30:46.767Z,78.00
2018-11-03T13:33:49.688Z,77.00
2018-11-03T13:36:52.622Z,77.80
2018-11-03T13:39:55.554Z,78.60
2018-11-03T13:42:58.457Z,79.00
2018-11-03T13:46:01.421Z,77.50
2018-11-03T13:49:04.456Z,77.40
2018-11-03T13:52:07.429Z,76.60
2018-11-03T13:55:10.641Z,75.50
2018-11-03T13:58:13.521Z,77.40
2018-11-03T14:01:16.414Z,77.00
2018-11-03T14:04:19.299Z,76.80
2018-11-03T14:07:22.189Z,79.00
2018-11-03T14:10:25.087Z,79.20
2018-11-03T14:13:28.048Z,79.90
2018-11-03T14:16:31.005Z,79.90
2018-11-03T14:19:33.907Z,79.80
2018-11-03T14:22:36.883Z,81.50
2018-11-03T14:25:39.820Z,80.50
2018-11-03T14:28:42.704Z,82.10
2018-11-03T14:31:45.635Z,81.70
2018-11-03T14:34:48.533Z,82.10
2018-11-03T14:37:51.474Z,81.40
2018-11-03T14:40:54.432Z,82.80
2018-11-03T14:43:57.337Z,81.50
2018-11-03T14:47:00.262Z,82.10
2018-11-03T14:50:04.281Z,82.80
2018-11-03T14:53:07.189Z,82.30
2018-11-03T14:56:10.145Z,82.00
2018-11-03T14:59:13.057Z,82.60
2018-11-03T15:02:15.994Z,83.20
2018-11-03T15:05:18.901Z,82.90
2018-11-03T15:08:21.872Z,83.00
2018-11-03T15:11:24.799Z,83.20
2018-11-03T15:14:27.759Z,83.40
2018-11-03T15:17:30.666Z,83.30
2018-11-03T15:20:33.545Z,83.20
2018-11-03T15:23:36.474Z,83.20
2018-11-03T15:26:39.393Z,82.90
2018-11-03T15:29:42.325Z,82.70
2018-11-03T15:32:45.220Z,82.60
2018-11-03T15:35:48.166Z,83.00
2018-11-03T15:38:51.079Z,82.70
2018-11-03T15:41:54.039Z,82.90
2018-11-03T15:44:56.930Z,82.40
2018-11-03T15:47:59.898Z,82.30
2018-11-03T15:51:02.846Z,82.30
2018-11-03T15:54:05.940Z,82.10
2018-11-03T15:57:08.869Z,82.20
2018-11-03T16:00:14.741Z,81.80
2018-11-03T16:03:17.656Z,82.10
2018-11-03T16:06:20.553Z,82.00
2018-11-03T16:09:23.457Z,81.60
2018-11-03T16:12:26.459Z,81.40
2018-11-03T16:15:29.372Z,81.30
2018-11-03T16:18:32.335Z,81.00
2018-11-03T16:21:35.273Z,80.90
2018-11-03T16:24:38.233Z,80.90
2018-11-03T16:27:41.156Z,80.80
2018-11-03T16:30:44.079Z,80.70
2018-11-03T16:33:46.993Z,80.50
2018-11-03T16:36:49.857Z,80.50
2018-11-03T16:39:52.810Z,80.20
2018-11-03T16:42:55.669Z,80.20
2018-11-03T16:45:58.585Z,80.40
2018-11-03T16:49:01.540Z,80.40
2018-11-03T16:52:05.224Z,80.40
2018-11-03T16:55:09.317Z,80.70
2018-11-03T16:58:12.376Z,80.20
2018-11-03T17:01:15.393Z,80.10
2018-11-03T17:04:18.824Z,80.40
2018-11-03T17:07:22.053Z,79.80
2018-11-03T17:10:25.014Z,79.50
2018-11-03T17:13:28.072Z,79.80
2018-11-03T17:16:31.514Z,79.90
2018-11-03T17:19:34.445Z,79.80
2018-11-03T17:22:37.716Z,80.20
2018-11-03T17:25:40.896Z,80.40
2018-11-03T17:28:44.328Z,80.50
2018-11-03T17:31:47.614Z,80.40
2018-11-03T17:34:50.706Z,80.00
2018-11-03T17:37:53.664Z,80.30
2018-11-03T17:40:57.106Z,80.30
2018-11-03T17:44:00.094Z,80.70
2018-11-03T17:47:03.117Z,79.90
2018-11-03T17:50:08.083Z,79.60
2018-11-03T17:53:11.225Z,79.80
2018-11-03T17:56:14.638Z,79.90
2018-11-03T17:59:18.020Z,79.90
2018-11-03T18:02:21.213Z,79.70
2018-11-03T18:05:24.168Z,79.40
2018-11-03T18:08:27.235Z,79.90
2018-11-03T18:11:30.474Z,80.10
2018-11-03T18:14:33.853Z,80.10
2018-11-03T18:17:37.024Z,80.30
2018-11-03T18:20:39.958Z,81.20
2018-11-03T18:23:43.104Z,81.40
2018-11-03T18:26:46.273Z,80.70
2018-11-03T18:29:49.221Z,81.30
2018-11-03T18:32:52.163Z,81.60
2018-11-03T18:36:01.728Z,82.20
2018-11-03T18:39:07.545Z,80.70
2018-11-03T18:42:11.833Z,80.70
2018-11-03T18:45:14.842Z,80.80
2018-11-03T18:48:18.082Z,80.90
2018-11-03T18:51:21.845Z,81.40
2018-11-03T18:54:25.745Z,81.50
2018-11-03T18:57:29.237Z,80.50
2018-11-03T19:00:32.494Z,80.60
2018-11-03T19:03:35.424Z,80.10
2018-11-03T19:06:38.714Z,80.50
2018-11-03T19:09:42.370Z,80.00
2018-11-03T19:12:45.974Z,79.80
2018-11-03T19:15:51.475Z,79.50
2018-11-03T19:18:56.273Z,79.10
2018-11-03T19:22:00.161Z,79.60
2018-11-03T19:25:04.026Z,79.60
2018-11-03T19:28:08.096Z,79.60
2018-11-03T19:31:11.525Z,79.70
2018-11-03T19:34:15.417Z,79.40
2018-11-03T19:37:18.757Z,79.10
2018-11-03T19:40:22.160Z,79.00
2018-11-03T19:43:25.292Z,78.50
2018-11-03T19:46:28.574Z,78.40
2018-11-03T19:49:31.902Z,79.10
2018-11-03T19:52:35.330Z,79.10
2018-11-03T19:55:38.586Z,78.90
2018-11-03T19:58:41.867Z,78.70
2018-11-03T20:01:44.945Z,77.90
2018-11-03T20:04:48.303Z,77.70
2018-11-03T20:07:51.722Z,77.40
2018-11-03T20:10:55.000Z,77.50
2018-11-03T20:13:58.470Z,77.40
2018-11-03T20:17:01.563Z,77.70
2018-11-03T20:20:06.539Z,77.60
2018-11-03T20:23:09.855Z,77.80
2018-11-03T20:26:13.765Z,77.60
2018-11-03T20:29:16.812Z,77.70
2018-11-03T20:32:19.788Z,77.70
2018-11-03T20:35:22.816Z,77.50
2018-11-03T20:38:26.302Z,77.40
2018-11-03T20:41:29.557Z,77.00
2018-11-03T20:44:32.856Z,76.80
2018-11-03T20:47:36.323Z,76.80
2018-11-03T20:50:39.626Z,77.60
2018-11-03T20:53:42.667Z,76.80
2018-11-03T20:56:46.162Z,76.70
2018-11-03T20:59:49.429Z,76.50
2018-11-03T21:02:52.755Z,76.20
2018-11-03T21:05:56.016Z,76.00
2018-11-03T21:08:59.154Z,76.00
2018-11-03T21:12:02.166Z,75.70
2018-11-03T21:15:05.698Z,77.70
2018-11-03T21:18:09.081Z,76.20
2018-11-03T21:21:12.227Z,75.00
2018-11-03T21:24:15.687Z,75.00
2018-11-03T21:27:18.612Z,75.30
2018-11-03T21:30:21.953Z,75.30
2018-11-03T21:33:25.409Z,75.40
2018-11-03T21:36:28.480Z,75.70
2018-11-03T21:39:31.678Z,75.00
2018-11-03T21:42:34.922Z,75.60
2018-11-03T21:45:38.028Z,75.40
2018-11-03T21:48:41.907Z,75.20
2018-11-03T21:51:45.084Z,75.70
2018-11-03T21:54:48.972Z,75.80
2018-11-03T21:57:52.252Z,75.80
2018-11-03T22:00:55.165Z,76.20
2018-11-03T22:03:58.125Z,77.20
2018-11-03T22:07:01.078Z,76.10
2018-11-03T22:10:04.637Z,75.80
2018-11-03T22:13:07.707Z,75.30
2018-11-03T22:16:10.731Z,75.70
2018-11-03T22:19:13.709Z,75.60
2018-11-03T22:22:16.696Z,75.80
2018-11-03T22:25:19.777Z,75.90
2018-11-03T22:28:22.979Z,75.80
2018-11-03T22:31:25.898Z,75.60
2018-11-03T22:34:28.839Z,75.90
2018-11-03T22:37:31.761Z,75.50
2018-11-03T22:40:34.722Z,75.30
2018-11-03T22:43:37.656Z,75.00
2018-11-03T22:46:40.604Z,75.00
2018-11-03T22:49:43.573Z,75.00
2018-11-03T22:52:46.531Z,75.20
2018-11-03T22:55:49.410Z,75.90
2018-11-03T22:58:52.354Z,75.50
2018-11-03T23:01:55.404Z,76.40
2018-11-03T23:04:58.316Z,76.30
2018-11-03T23:08:01.222Z,75.90
2018-11-03T23:11:04.244Z,75.90
2018-11-03T23:14:07.208Z,75.80
2018-11-03T23:17:10.149Z,76.20
2018-11-03T23:20:13.754Z,76.20
2018-11-03T23:23:16.692Z,75.90
2018-11-03T23:26:21.571Z,76.30
2018-11-03T23:29:24.549Z,76.10
2018-11-03T23:32:27.389Z,76.10
2018-11-03T23:35:30.321Z,76.30
2018-11-03T23:38:33.238Z,76.10
2018-11-03T23:41:36.148Z,75.90
2018-11-03T23:44:39.118Z,75.90
2018-11-03T23:47:42.093Z,75.60
2018-11-03T23:50:45.071Z,76.20
2018-11-03T23:53:47.989Z,77.00
2018-11-03T23:56:50.981Z,76.40
2018-11-03T23:59:53.941Z,76.30
